Time;durP1;ratioP1;P1;durP2;ratioP2;P2;SDS_P1;SDS_P2;PMS_P1;PMS_P2;Temp;Humidity;BMP_temperature;BMP_pressure;BME280_temperature;BME280_humidity;BME280_pressure;Samples;Min_cycle;Max_cycle;Signal;HPM_P1;HPM_P2
2021/05/05 00:00:57;;;;;;;0.90;0.90;;;13.90;99.90;;;;;;5014723;28;20101;-73
2021/05/05 00:03:23;;;;;;;6.28;1.77;;;13.90;99.90;;;;;;5014690;28;20120;-73
2021/05/05 00:05:49;;;;;;;2.60;1.20;;;13.90;99.90;;;;;;5015158;28;20537;-73
2021/05/05 00:08:15;;;;;;;3.88;2.13;;;14.00;99.90;;;;;;5015024;28;20045;-73
2021/05/05 00:10:40;;;;;;;2.53;1.50;;;14.00;99.90;;;;;;5014958;28;20053;-73
2021/05/05 00:13:06;;;;;;;1.20;1.10;;;14.00;99.90;;;;;;5014653;28;20038;-73
2021/05/05 00:15:32;;;;;;;3.47;1.25;;;14.00;99.90;;;;;;5014958;28;20486;-72
2021/05/05 00:17:58;;;;;;;3.40;1.80;;;14.00;99.90;;;;;;5014842;28;20540;-72
2021/05/05 00:20:24;;;;;;;2.25;1.38;;;13.90;99.90;;;;;;5014846;28;20106;-73
2021/05/05 00:22:50;;;;;;;4.78;1.55;;;13.90;99.90;;;;;;5014848;28;20117;-72
2021/05/05 00:25:16;;;;;;;3.50;1.23;;;14.00;99.90;;;;;;5013325;28;20108;-73
2021/05/05 00:27:42;;;;;;;3.25;1.80;;;14.10;99.90;;;;;;5020257;28;20480;-73
2021/05/05 00:30:11;;;;;;;1.52;1.40;;;14.10;99.90;;;;;;5034452;28;20064;-73
2021/05/05 00:32:37;;;;;;;4.95;2.00;;;14.10;99.90;;;;;;5033900;28;20359;-72
2021/05/05 00:35:04;;;;;;;1.85;1.70;;;13.90;99.90;;;;;;5034366;28;20091;-73
2021/05/05 00:37:30;;;;;;;3.67;1.63;;;13.90;99.90;;;;;;5034011;28;20037;-73
2021/05/05 00:39:56;;;;;;;3.42;1.80;;;14.00;99.90;;;;;;5016641;28;20034;-73
2021/05/05 00:42:23;;;;;;;1.80;1.58;;;13.90;99.90;;;;;;5013755;28;20108;-73
2021/05/05 00:44:49;;;;;;;2.47;1.40;;;13.90;99.90;;;;;;5014406;28;20045;-73
2021/05/05 00:47:16;;;;;;;1.70;1.40;;;13.70;99.90;;;;;;5014342;28;20025;-73
2021/05/05 00:49:42;;;;;;;3.55;1.50;;;13.70;99.90;;;;;;5024479;28;20025;-73
2021/05/05 00:52:09;;;;;;;2.13;1.73;;;13.80;99.90;;;;;;5014074;28;20065;-73
2021/05/05 00:54:35;;;;;;;2.72;1.52;;;13.90;99.90;;;;;;5014215;28;20097;-73
2021/05/05 00:57:01;;;;;;;2.70;1.50;;;13.80;99.90;;;;;;5013839;28;20462;-73
2021/05/05 00:59:27;;;;;;;1.50;1.40;;;13.80;99.90;;;;;;5024262;28;20028;-72
2021/05/05 01:01:53;;;;;;;7.38;1.92;;;13.80;99.90;;;;;;5033413;28;20096;-73
2021/05/05 01:04:20;;;;;;;3.55;1.17;;;13.70;99.90;;;;;;5028467;28;20033;-73
2021/05/05 01:06:47;;;;;;;3.83;1.25;;;13.80;99.90;;;;;;5033641;28;20100;-73
2021/05/05 01:09:15;;;;;;;4.90;1.73;;;13.80;99.90;;;;;;5022454;28;20029;-73
2021/05/05 01:11:42;;;;;;;3.25;1.52;;;13.80;99.90;;;;;;5011421;28;20029;-73
2021/05/05 01:14:07;;;;;;;3.30;1.00;;;13.80;99.90;;;;;;5013817;28;20505;-73
2021/05/05 01:16:33;;;;;;;2.53;1.45;;;13.80;99.90;;;;;;5013609;28;20030;-73
2021/05/05 01:18:59;;;;;;;3.20;1.50;;;13.80;99.90;;;;;;5013750;28;20034;-73
2021/05/05 01:21:25;;;;;;;2.95;1.70;;;13.80;99.90;;;;;;5013735;28;20530;-73
2021/05/05 01:23:50;;;;;;;1.85;1.75;;;13.80;99.90;;;;;;5013821;28;20105;-73
2021/05/05 01:26:16;;;;;;;2.15;1.65;;;13.80;99.90;;;;;;5013149;28;20030;-73
2021/05/05 01:28:44;;;;;;;3.00;1.60;;;13.90;99.90;;;;;;5013548;28;20061;-73
2021/05/05 01:31:12;;;;;;;1.35;1.25;;;13.80;99.90;;;;;;5013604;28;20030;-73
2021/05/05 01:33:40;;;;;;;2.17;1.02;;;13.80;99.90;;;;;;5013546;28;20524;-73
2021/05/05 01:36:07;;;;;;;1.33;1.23;;;13.70;99.90;;;;;;5013606;28;20106;-73
2021/05/05 01:38:33;;;;;;;2.75;1.52;;;13.60;99.90;;;;;;5011932;28;20430;-73
2021/05/05 01:40:59;;;;;;;3.70;2.00;;;13.50;99.90;;;;;;5013283;28;20049;-73
2021/05/05 01:43:25;;;;;;;4.90;1.30;;;13.60;99.90;;;;;;5013327;28;20037;-73
2021/05/05 01:45:51;;;;;;;3.00;1.52;;;13.60;99.90;;;;;;5013566;28;20018;-73
2021/05/05 01:48:18;;;;;;;2.70;1.70;;;13.60;99.90;;;;;;5013325;28;20022;-73
2021/05/05 01:50:45;;;;;;;1.92;1.60;;;13.60;99.90;;;;;;5013227;28;20029;-73
2021/05/05 01:53:14;;;;;;;1.77;1.45;;;13.60;99.90;;;;;;5013491;28;20525;-73
2021/05/05 01:55:40;;;;;;;3.08;1.58;;;13.50;99.90;;;;;;5012852;28;20030;-73
2021/05/05 01:58:06;;;;;;;2.42;1.45;;;13.50;99.90;;;;;;5013469;28;20519;-73
2021/05/05 02:00:32;;;;;;;2.00;1.67;;;13.60;99.90;;;;;;5012963;28;20704;-73
2021/05/05 02:02:58;;;;;;;2.45;1.80;;;13.60;99.90;;;;;;5012941;28;20065;-73
2021/05/05 02:05:24;;;;;;;1.70;1.60;;;13.50;99.90;;;;;;5013240;28;20053;-73
2021/05/05 02:07:50;;;;;;;5.80;1.70;;;13.50;99.90;;;;;;5013072;28;20462;-73
2021/05/05 02:10:20;;;;;;;2.65;1.60;;;13.30;99.90;;;;;;5012769;28;20084;-73
2021/05/05 02:12:46;;;;;;;1.73;1.30;;;13.10;99.90;;;;;;5012923;28;20076;-73
2021/05/05 02:15:14;;;;;;;2.45;1.60;;;13.10;99.90;;;;;;5013055;28;20465;-73
2021/05/05 02:17:41;;;;;;;3.75;1.70;;;13.00;99.90;;;;;;5011738;28;20367;-73
2021/05/05 02:20:09;;;;;;;2.22;1.80;;;13.00;99.90;;;;;;5013176;28;20022;-73
2021/05/05 02:22:35;;;;;;;4.57;2.15;;;12.90;99.90;;;;;;5012824;28;20030;-72
2021/05/05 02:25:00;;;;;;;3.08;1.95;;;12.90;99.90;;;;;;5016154;28;20050;-73
2021/05/05 02:27:27;;;;;;;2.17;2.05;;;12.80;99.90;;;;;;5015633;28;20601;-73
2021/05/05 02:29:53;;;;;;;3.83;1.80;;;12.80;99.90;;;;;;5016997;28;20037;-73
2021/05/05 02:32:23;;;;;;;2.38;1.60;;;12.70;99.90;;;;;;5016930;28;20030;-72
2021/05/05 02:34:50;;;;;;;4.15;2.03;;;12.60;99.90;;;;;;5016666;28;20026;-73
2021/05/05 02:37:16;;;;;;;2.80;1.77;;;12.50;99.90;;;;;;5016744;28;20042;-73
2021/05/05 02:39:44;;;;;;;2.42;2.17;;;12.30;99.90;;;;;;5016310;28;20022;-73
2021/05/05 02:42:14;;;;;;;3.35;1.88;;;12.20;99.90;;;;;;5016756;28;20034;-73
2021/05/05 02:44:40;;;;;;;;;;;12.10;99.90;;;;;;5016956;28;20070;-72
2021/05/05 02:47:06;;;;;;;3.30;1.75;;;12.10;99.90;;;;;;5016583;28;20362;-73
2021/05/05 02:49:32;;;;;;;4.57;1.92;;;12.10;99.90;;;;;;5016493;28;20053;-73
2021/05/05 02:52:01;;;;;;;1.77;1.67;;;12.10;99.90;;;;;;5016347;28;20030;-73
2021/05/05 02:54:31;;;;;;;2.03;1.80;;;12.20;99.90;;;;;;5016251;28;20040;-73
2021/05/05 02:56:56;;;;;;;;;;;12.30;99.90;;;;;;5015349;28;20025;-73
2021/05/05 02:59:24;;;;;;;1.88;1.70;;;12.40;99.90;;;;;;5016397;28;19909;-73
2021/05/05 03:01:54;;;;;;;2.67;1.83;;;12.50;99.90;;;;;;5014462;28;20096;-73
2021/05/05 03:04:20;;;;;;;;;;;12.50;99.90;;;;;;5016402;28;20159;-73
2021/05/05 03:06:46;;;;;;;2.45;2.25;;;12.50;99.90;;;;;;5016113;28;19959;-73
2021/05/05 03:09:13;;;;;;;3.55;2.50;;;12.50;99.90;;;;;;5016015;28;20038;-73
2021/05/05 03:11:39;;;;;;;2.72;2.10;;;12.50;99.90;;;;;;5016062;28;20026;-73
2021/05/05 03:14:05;;;;;;;3.30;2.00;;;12.40;99.90;;;;;;5015874;28;20149;-73
2021/05/05 03:16:31;;;;;;;3.05;1.98;;;12.30;99.90;;;;;;5016014;28;20119;-73
2021/05/05 03:18:56;;;;;;;8.90;2.63;;;12.20;99.90;;;;;;5016001;28;20034;-73
2021/05/05 03:21:22;;;;;;;3.20;1.92;;;12.20;99.90;;;;;;5015888;28;20490;-72
2021/05/05 03:23:48;;;;;;;3.47;2.50;;;12.20;99.90;;;;;;5013999;28;20466;-73
2021/05/05 03:26:14;;;;;;;5.63;2.05;;;12.20;99.90;;;;;;5015880;28;20482;-73
2021/05/05 03:28:41;;;;;;;2.50;2.30;;;12.10;99.90;;;;;;5015583;28;20022;-73
2021/05/05 03:31:06;;;;;;;2.60;2.40;;;12.10;99.90;;;;;;5015812;28;20029;-73
2021/05/05 03:33:32;;;;;;;3.65;2.10;;;12.10;99.90;;;;;;5015725;28;20398;-73
2021/05/05 03:35:58;;;;;;;2.78;2.33;;;12.00;99.90;;;;;;5015280;28;20026;-73
2021/05/05 03:38:24;;;;;;;3.30;2.35;;;12.10;99.90;;;;;;5015316;28;20034;-73
2021/05/05 03:40:50;;;;;;;5.82;2.40;;;12.20;99.90;;;;;;5015323;28;20056;-73
2021/05/05 03:43:16;;;;;;;2.33;2.03;;;12.10;99.90;;;;;;5015621;28;20382;-73
2021/05/05 03:45:41;;;;;;;2.95;2.60;;;12.20;99.90;;;;;;5015424;28;20097;-73
2021/05/05 03:48:08;;;;;;;5.03;2.63;;;12.30;99.90;;;;;;5015546;28;20370;-72
2021/05/05 03:50:35;;;;;;;3.95;2.33;;;12.20;99.90;;;;;;5015042;28;20111;-73
2021/05/05 03:53:01;;;;;;;3.33;2.20;;;12.10;99.90;;;;;;5015251;28;20029;-73
2021/05/05 03:55:27;;;;;;;5.85;3.08;;;12.10;99.90;;;;;;5015501;28;20084;-73
2021/05/05 03:57:53;;;;;;;7.30;3.17;;;12.10;99.90;;;;;;5014930;28;20030;-73
2021/05/05 04:00:19;;;;;;;9.50;3.85;;;12.20;99.90;;;;;;5015189;28;20250;-73
2021/05/05 04:02:45;;;;;;;5.05;3.00;;;12.10;99.90;;;;;;5014740;28;20398;-73
2021/05/05 04:05:11;;;;;;;3.50;2.75;;;12.20;99.90;;;;;;5014241;28;20022;-73
2021/05/05 04:07:37;;;;;;;3.47;2.70;;;12.20;99.90;;;;;;5015013;28;20438;-73
2021/05/05 04:10:05;;;;;;;3.80;2.60;;;12.30;99.90;;;;;;5014946;28;20053;-73
2021/05/05 04:12:31;;;;;;;4.88;2.30;;;12.30;99.90;;;;;;5014784;28;20030;-73
2021/05/05 04:14:57;;;;;;;5.07;2.30;;;12.40;99.90;;;;;;5019692;28;20040;-73
2021/05/05 04:17:24;;;;;;;2.92;2.15;;;12.30;99.90;;;;;;5033354;28;20462;-73
2021/05/05 04:19:54;;;;;;;2.45;2.25;;;12.30;99.90;;;;;;5034209;28;20029;-73
2021/05/05 04:22:20;;;;;;;2.92;2.63;;;12.40;99.90;;;;;;5034519;28;20080;-73
2021/05/05 04:24:46;;;;;;;3.20;2.88;;;12.50;99.90;;;;;;5034494;28;20389;-73
2021/05/05 04:27:13;;;;;;;2.35;2.15;;;12.30;99.90;;;;;;5032988;28;20033;-73
2021/05/05 04:29:39;;;;;;;4.25;2.83;;;12.30;99.90;;;;;;5034449;28;20028;-73
2021/05/05 04:32:05;;;;;;;3.47;2.80;;;12.30;99.90;;;;;;5019460;28;20486;-73
2021/05/05 04:34:31;;;;;;;3.65;2.40;;;12.30;99.90;;;;;;5013853;28;20022;-73
2021/05/05 04:36:57;;;;;;;2.53;2.10;;;12.30;99.90;;;;;;5013687;28;20021;-73
2021/05/05 04:39:23;;;;;;;4.78;2.20;;;12.40;99.90;;;;;;5012343;28;20057;-73
2021/05/05 04:41:49;;;;;;;3.20;2.33;;;12.40;99.90;;;;;;5013220;28;20472;-73
2021/05/05 04:44:15;;;;;;;3.50;2.28;;;12.40;99.90;;;;;;5013475;28;20080;-73
2021/05/05 04:46:41;;;;;;;2.30;2.10;;;12.30;99.90;;;;;;5013723;28;20026;-73
2021/05/05 04:49:07;;;;;;;2.35;2.03;;;12.30;99.90;;;;;;5013840;28;20037;-73
2021/05/05 04:51:33;;;;;;;2.83;2.08;;;12.40;99.90;;;;;;5002750;28;20509;-73
2021/05/05 04:53:59;;;;;;;3.88;1.80;;;12.40;99.90;;;;;;5006491;28;20461;-73
2021/05/05 04:56:25;;;;;;;1.27;1.17;;;12.30;99.90;;;;;;5011675;28;20105;-73
2021/05/05 04:58:51;;;;;;;2.35;1.00;;;12.50;99.90;;;;;;5011700;28;20109;-74
2021/05/05 05:01:17;;;;;;;8.80;2.00;;;12.80;99.90;;;;;;5011729;28;20040;-74
2021/05/05 05:03:42;;;;;;;5.32;1.38;;;12.70;99.90;;;;;;5010561;28;20486;-73
2021/05/05 05:06:08;;;;;;;6.25;1.15;;;12.60;99.90;;;;;;5011689;28;20090;-73
2021/05/05 05:08:34;;;;;;;1.13;1.13;;;12.40;99.90;;;;;;5011698;28;20025;-73
2021/05/05 05:11:00;;;;;;;3.30;1.10;;;12.40;99.90;;;;;;5011360;28;20427;-75
2021/05/05 05:13:25;;;;;;;1.30;1.02;;;12.30;99.90;;;;;;5011373;28;20482;-73
2021/05/05 05:15:51;;;;;;;4.35;1.33;;;12.30;99.90;;;;;;5013392;28;20040;-74
2021/05/05 05:18:17;;;;;;;2.13;1.23;;;12.30;99.90;;;;;;5010781;28;20030;-73
2021/05/05 05:20:43;;;;;;;2.20;1.08;;;12.40;99.90;;;;;;5011353;28;20037;-73
2021/05/05 05:23:09;;;;;;;1.48;1.05;;;12.40;99.90;;;;;;5007700;28;20034;-73
2021/05/05 05:25:34;;;;;;;2.10;1.05;;;12.40;99.90;;;;;;5013292;28;20026;-73
2021/05/05 05:28:00;;;;;;;2.58;1.02;;;12.40;99.90;;;;;;5011273;28;21567;-73
2021/05/05 05:30:26;;;;;;;2.70;0.88;;;12.10;99.90;;;;;;5015035;28;20065;-73
2021/05/05 05:32:52;;;;;;;1.95;0.70;;;11.90;99.90;;;;;;5010935;28;20030;-74
2021/05/05 05:35:18;;;;;;;0.80;0.80;;;12.00;99.90;;;;;;5011467;28;20072;-74
2021/05/05 05:37:44;;;;;;;1.13;0.80;;;12.10;99.90;;;;;;5010215;28;20037;-73
2021/05/05 05:40:11;;;;;;;1.23;0.88;;;12.20;99.90;;;;;;5010159;28;20501;-73
2021/05/05 05:42:36;;;;;;;0.90;0.73;;;12.20;99.90;;;;;;5012101;28;20033;-73
2021/05/05 05:45:04;;;;;;;2.65;0.75;;;12.20;99.90;;;;;;5010380;28;20029;-74
2021/05/05 05:47:30;;;;;;;0.75;0.75;;;12.20;99.90;;;;;;5010641;28;20040;-72
2021/05/05 05:49:55;;;;;;;1.50;0.82;;;12.20;99.90;;;;;;5006809;28;20022;-71
2021/05/05 05:52:21;;;;;;;1.30;1.00;;;11.90;99.90;;;;;;5010539;28;20046;-71
2021/05/05 05:54:47;;;;;;;1.70;0.88;;;11.60;99.90;;;;;;5015393;28;20034;-70
2021/05/05 05:57:13;;;;;;;3.60;1.27;;;11.60;99.90;;;;;;5015509;28;20030;-70
2021/05/05 05:59:39;;;;;;;1.40;1.10;;;11.70;99.90;;;;;;5021601;28;20525;-71
2021/05/05 06:02:05;;;;;;;2.35;1.13;;;11.30;99.90;;;;;;5006533;28;20061;-70
2021/05/05 06:04:30;;;;;;;1.27;1.17;;;11.20;99.90;;;;;;5009549;28;20390;-70
2021/05/05 06:06:58;;;;;;;0.77;0.75;;;11.10;99.90;;;;;;5011004;28;20036;-70
2021/05/05 06:09:24;;;;;;;1.33;1.00;;;10.90;99.90;;;;;;5011090;28;20021;-70
2021/05/05 06:11:50;;;;;;;2.05;0.70;;;10.80;99.90;;;;;;5010631;28;20042;-70
2021/05/05 06:14:17;;;;;;;1.98;1.13;;;10.80;99.90;;;;;;5010710;28;20413;-70
2021/05/05 06:16:43;;;;;;;1.83;0.95;;;10.90;99.90;;;;;;5009935;28;20064;-70
2021/05/05 06:19:09;;;;;;;1.23;1.13;;;11.30;99.90;;;;;;5011255;28;20054;-70
2021/05/05 06:21:35;;;;;;;3.25;1.10;;;11.50;99.90;;;;;;5011072;28;20076;-70
2021/05/05 06:24:00;;;;;;;2.05;1.40;;;11.70;99.90;;;;;;5011007;28;20470;-70
2021/05/05 06:26:26;;;;;;;3.00;1.42;;;11.90;99.90;;;;;;5011576;28;20026;-70
2021/05/05 06:28:52;;;;;;;1.08;1.00;;;12.00;99.90;;;;;;5010979;28;20030;-70
2021/05/05 06:31:18;;;;;;;0.88;0.88;;;12.20;99.90;;;;;;5010966;28;20030;-70
2021/05/05 06:33:43;;;;;;;1.30;1.20;;;12.30;99.90;;;;;;5011013;28;20026;-70
2021/05/05 06:36:09;;;;;;;0.80;0.80;;;12.40;99.90;;;;;;5008827;28;20076;-70
2021/05/05 06:38:35;;;;;;;1.45;1.08;;;12.60;99.90;;;;;;5009485;28;20688;-70
2021/05/05 06:41:01;;;;;;;1.88;1.05;;;12.60;99.90;;;;;;5010971;28;20021;-70
2021/05/05 06:43:27;;;;;;;1.92;1.40;;;12.70;99.90;;;;;;5010041;28;20482;-70
2021/05/05 06:45:53;;;;;;;1.13;0.95;;;12.70;99.90;;;;;;5008527;28;20117;-70
2021/05/05 06:48:19;;;;;;;2.83;1.27;;;12.60;99.90;;;;;;5010095;28;20133;-70
2021/05/05 06:50:46;;;;;;;1.55;1.10;;;12.70;99.90;;;;;;5009050;28;20026;-70
2021/05/05 06:53:12;;;;;;;3.15;1.17;;;13.00;99.90;;;;;;5010481;28;20478;-70
2021/05/05 06:55:38;;;;;;;1.50;1.40;;;12.80;99.90;;;;;;5009686;28;20026;-71
2021/05/05 06:58:04;;;;;;;1.33;1.20;;;12.90;99.90;;;;;;5015798;28;20160;-70
2021/05/05 07:00:30;;;;;;;1.45;1.30;;;13.10;99.90;;;;;;5012239;28;20022;-70
2021/05/05 07:02:56;;;;;;;5.22;3.20;;;13.20;99.90;;;;;;5012936;28;20102;-70
2021/05/05 07:05:22;;;;;;;2.58;1.20;;;13.30;99.90;;;;;;5010470;28;20393;-70
2021/05/05 07:07:48;;;;;;;1.67;1.48;;;13.60;99.90;;;;;;5009886;28;20033;-70
2021/05/05 07:10:14;;;;;;;4.63;1.10;;;13.90;99.90;;;;;;5012017;28;20061;-70
2021/05/05 07:12:40;;;;;;;4.03;1.13;;;13.90;99.90;;;;;;5014096;28;20053;-70
2021/05/05 07:15:07;;;;;;;1.20;1.00;;;13.80;99.90;;;;;;5013198;28;20108;-70
2021/05/05 07:17:33;;;;;;;0.95;0.93;;;13.60;99.90;;;;;;5015245;28;20026;-70
2021/05/05 07:19:59;;;;;;;0.73;0.68;;;13.60;99.90;;;;;;5013418;28;20038;-70
2021/05/05 07:22:25;;;;;;;2.05;0.90;;;13.80;99.90;;;;;;5014324;28;20041;-70
2021/05/05 07:24:51;;;;;;;1.23;0.70;;;13.70;99.90;;;;;;5013145;28;20429;-70
2021/05/05 07:27:17;;;;;;;2.17;0.63;;;13.70;99.90;;;;;;5013662;28;20437;-70
2021/05/05 07:29:43;;;;;;;1.20;0.88;;;13.80;99.90;;;;;;5012793;28;20501;-70
2021/05/05 07:32:09;;;;;;;1.40;0.90;;;13.70;99.90;;;;;;5013490;28;20117;-70
2021/05/05 07:34:38;;;;;;;0.95;0.80;;;13.70;99.90;;;;;;5013356;28;20450;-70
2021/05/05 07:37:11;;;;;;;2.00;0.73;;;13.50;99.90;;;;;;5006070;28;20026;-70
2021/05/05 07:49:51;;;;;;;0.73;0.30;;;13.50;99.90;;;;;;5012952;28;20022;-70
2021/05/05 07:52:19;;;;;;;0.70;0.25;;;13.20;99.90;;;;;;5017730;28;20029;-70
2021/05/05 07:54:45;;;;;;;1.00;0.20;;;12.90;99.90;;;;;;5012207;28;20105;-70
2021/05/05 07:57:11;;;;;;;0.13;0.13;;;12.80;99.90;;;;;;5012721;28;20030;-70
2021/05/05 07:59:38;;;;;;;0.17;0.13;;;12.70;99.90;;;;;;5020338;28;20026;-70
2021/05/05 08:02:04;;;;;;;0.20;0.20;;;12.80;99.90;;;;;;5009020;28;20133;-70
2021/05/05 08:04:31;;;;;;;1.08;0.30;;;12.80;99.90;;;;;;5012789;28;20013;-70
2021/05/05 08:06:58;;;;;;;1.17;0.20;;;12.80;99.90;;;;;;5012184;28;20026;-70
2021/05/05 08:09:25;;;;;;;1.48;0.20;;;12.60;99.90;;;;;;5014472;28;20363;-70
2021/05/05 08:11:51;;;;;;;0.60;0.20;;;12.60;99.90;;;;;;5014776;28;20037;-70
2021/05/05 08:14:18;;;;;;;0.80;0.20;;;12.50;99.90;;;;;;5014741;28;20030;-70
2021/05/05 08:16:45;;;;;;;0.77;0.32;;;12.40;99.90;;;;;;5014491;28;20034;-70
2021/05/05 08:19:11;;;;;;;0.63;0.15;;;12.40;99.90;;;;;;5014028;28;20494;-70
2021/05/05 08:21:37;;;;;;;0.38;0.20;;;12.30;99.90;;;;;;5012898;28;20056;-70
2021/05/05 08:24:04;;;;;;;0.45;0.25;;;12.00;99.90;;;;;;5014352;28;20099;-70
2021/05/05 08:26:30;;;;;;;0.80;0.20;;;11.80;99.90;;;;;;5013893;28;20018;-70
2021/05/05 08:28:57;;;;;;;0.47;0.30;;;11.60;99.90;;;;;;5014241;28;20022;-70
2021/05/05 08:31:24;;;;;;;0.40;0.10;;;11.60;99.90;;;;;;5013829;28;20022;-70
2021/05/05 08:33:50;;;;;;;0.30;0.30;;;11.90;99.90;;;;;;5014244;28;20394;-70
2021/05/05 08:36:16;;;;;;;0.68;0.20;;;12.60;99.90;;;;;;5013966;28;20041;-70
2021/05/05 08:38:42;;;;;;;0.30;0.20;;;13.00;99.90;;;;;;5013960;28;20022;-70
2021/05/05 08:41:10;;;;;;;0.55;0.20;;;13.70;99.90;;;;;;5013531;28;20033;-70
2021/05/05 08:43:36;;;;;;;0.20;0.20;;;13.50;99.90;;;;;;5013924;28;20030;-70
2021/05/05 08:46:05;;;;;;;1.60;0.25;;;13.20;99.90;;;;;;5012720;28;20030;-70
2021/05/05 08:48:31;;;;;;;1.40;0.20;;;13.30;99.90;;;;;;5013640;28;20471;-70
2021/05/05 08:50:58;;;;;;;0.40;0.25;;;12.70;99.90;;;;;;5013687;28;20264;-70
2021/05/05 08:53:23;;;;;;;0.13;0.13;;;12.60;99.90;;;;;;5013419;28;20033;-70
2021/05/05 08:55:49;;;;;;;0.15;0.15;;;12.30;99.90;;;;;;5013350;28;20038;-70
2021/05/05 08:58:15;;;;;;;0.20;0.20;;;12.70;99.90;;;;;;5013696;28;20068;-70
2021/05/05 09:00:41;;;;;;;1.73;0.45;;;13.10;99.90;;;;;;5013496;28;20048;-70
2021/05/05 09:03:08;;;;;;;2.72;0.30;;;13.80;99.90;;;;;;5013323;28;20406;-70
2021/05/05 09:05:56;;;;;;;0.30;0.30;;;14.70;99.90;;;;;;5013334;28;20022;-70
2021/05/05 09:08:22;;;;;;;0.22;0.17;;;15.40;99.90;;;;;;5013397;28;20068;-70
2021/05/05 09:11:00;;;;;;;0.43;0.38;;;15.90;99.90;;;;;;5013142;28;20026;-70
2021/05/05 09:13:44;;;;;;;0.40;0.40;;;16.30;99.90;;;;;;5013273;28;20105;-70
2021/05/05 09:16:13;;;;;;;0.63;0.57;;;16.10;99.90;;;;;;5013335;28;20038;-70
2021/05/05 09:19:05;;;;;;;0.73;0.32;;;16.20;99.90;;;;;;5013063;28;20394;-70
2021/05/05 09:21:31;;;;;;;0.40;0.40;;;16.30;99.90;;;;;;5013140;28;20382;-70
2021/05/05 09:24:21;;;;;;;1.45;0.80;;;16.90;99.90;;;;;;5013172;28;20034;-70
2021/05/05 09:26:50;;;;;;;0.70;0.70;;;18.10;99.90;;;;;;5013233;28;20504;-70
2021/05/05 09:29:16;;;;;;;0.98;0.60;;;18.10;99.90;;;;;;5013188;28;20110;-70
2021/05/05 09:31:43;;;;;;;1.50;0.73;;;18.10;99.90;;;;;;5012754;28;20473;-70
2021/05/05 09:34:11;;;;;;;0.57;0.57;;;18.90;99.90;;;;;;5013081;28;20398;-70
2021/05/05 09:36:55;;;;;;;0.98;0.98;;;18.00;99.90;;;;;;5013052;28;20080;-70
2021/05/05 09:39:26;;;;;;;1.92;1.60;;;17.90;99.90;;;;;;5012459;28;20030;-70
2021/05/05 09:41:52;;;;;;;1.80;1.20;;;17.60;99.90;;;;;;5012970;28;20050;-70
2021/05/05 09:44:18;;;;;;;1.88;1.77;;;18.50;99.90;;;;;;5012844;28;20058;-70
2021/05/05 09:46:46;;;;;;;1.98;1.73;;;21.20;99.90;;;;;;5012807;28;20060;-70
2021/05/05 09:49:34;;;;;;;1.98;1.83;;;22.20;99.90;;;;;;5011637;28;20437;-70
2021/05/05 09:52:04;;;;;;;1.80;1.70;;;26.10;95.80;;;;;;5012836;28;20049;-70
2021/05/05 09:54:39;;;;;;;1.98;1.88;;;27.00;88.10;;;;;;5012173;28;20038;-70
2021/05/05 09:57:21;;;;;;;1.85;1.75;;;26.60;76.70;;;;;;5012654;28;20036;-71
2021/05/05 10:00:03;;;;;;;2.35;1.90;;;24.50;90.20;;;;;;5012531;28;20041;-70
2021/05/05 10:02:31;;;;;;;2.35;1.05;;;24.10;84.60;;;;;;5012249;28;20041;-70
2021/05/05 10:05:27;;;;;;;1.67;1.58;;;21.30;99.90;;;;;;5012629;28;20022;-71
2021/05/05 10:07:57;;;;;;;1.38;1.33;;;24.00;91.20;;;;;;5007401;28;20049;-70
2021/05/05 10:10:29;;;;;;;;;;;26.80;81.40;;;;;;5013082;28;20026;-71
2021/05/05 10:12:59;;;;;;;2.25;1.17;;;26.30;84.90;;;;;;5012653;28;20387;-70
2021/05/05 10:15:27;;;;;;;0.90;0.90;;;26.10;77.80;;;;;;5012590;28;20014;-71
2021/05/05 10:17:53;;;;;;;2.00;1.20;;;30.00;72.70;;;;;;5012427;28;20516;-71
2021/05/05 10:20:24;;;;;;;1.42;1.00;;;31.50;61.00;;;;;;5012510;28;20033;-71
2021/05/05 10:22:53;;;;;;;1.58;0.80;;;30.60;63.70;;;;;;5010849;28;20041;-71
2021/05/05 10:25:19;;;;;;;0.77;0.77;;;28.50;64.00;;;;;;5012531;28;20022;-71
2021/05/05 10:27:45;;;;;;;0.73;0.73;;;29.70;60.60;;;;;;5012109;28;20500;-71
2021/05/05 10:30:14;;;;;;;0.70;0.70;;;27.00;64.40;;;;;;5012506;28;20029;-71
2021/05/05 10:32:42;;;;;;;0.47;0.47;;;26.20;70.40;;;;;;5012341;28;20105;-71
2021/05/05 10:35:09;;;;;;;1.85;0.80;;;22.20;92.50;;;;;;5012556;28;20073;-70
2021/05/05 10:37:52;;;;;;;1.50;1.00;;;22.00;97.90;;;;;;5011754;28;20057;-71
2021/05/05 10:40:23;;;;;;;1.23;1.13;;;28.60;78.10;;;;;;5012393;28;20026;-70
2021/05/05 10:42:58;;;;;;;0.60;0.60;;;30.10;65.60;;;;;;5012251;28;20041;-71
2021/05/05 10:45:36;;;;;;;0.60;0.60;;;27.70;68.70;;;;;;5014708;28;20025;-71
2021/05/05 10:48:11;;;;;;;0.73;0.60;;;25.30;75.40;;;;;;5016050;28;20026;-70
2021/05/05 10:50:52;;;;;;;0.40;0.40;;;22.60;92.60;;;;;;5015898;28;20022;-70
2021/05/05 10:53:26;;;;;;;0.50;0.50;;;20.80;99.90;;;;;;5015630;28;20042;-70
2021/05/05 10:55:58;;;;;;;1.15;1.10;;;21.20;99.90;;;;;;5015647;28;20030;-70
2021/05/05 10:58:31;;;;;;;0.90;0.90;;;27.20;85.70;;;;;;5015702;28;20040;-70
2021/05/05 11:00:59;;;;;;;0.55;0.55;;;27.30;71.10;;;;;;5015838;28;20072;-71
2021/05/05 11:03:46;;;;;;;1.17;0.73;;;27.40;66.10;;;;;;5015583;28;20046;-70
2021/05/05 11:06:33;;;;;;;0.85;0.82;;;27.40;69.20;;;;;;5015615;28;20410;-71
2021/05/05 11:09:11;;;;;;;0.88;0.88;;;25.90;69.80;;;;;;5015384;28;20524;-71
2021/05/05 11:11:39;;;;;;;0.73;0.73;;;26.20;73.00;;;;;;5015855;28;20026;-71
2021/05/05 11:14:05;;;;;;;0.90;0.90;;;26.90;66.50;;;;;;5015798;28;20038;-71
2021/05/05 11:16:59;;;;;;;0.60;0.60;;;27.10;69.30;;;;;;5015556;28;20034;-71
2021/05/05 11:19:38;;;;;;;0.57;0.57;;;25.70;65.40;;;;;;5010848;28;20457;-70
2021/05/05 11:22:07;;;;;;;0.52;0.52;;;24.00;75.10;;;;;;5015172;28;20030;-71
2021/05/05 11:24:38;;;;;;;1.63;0.60;;;22.50;88.20;;;;;;5015369;28;20379;-70
2021/05/05 11:27:09;;;;;;;0.70;0.70;;;22.10;91.60;;;;;;5015397;28;20026;-71
2021/05/05 11:29:54;;;;;;;0.93;0.63;;;24.20;89.30;;;;;;5015422;28;20378;-71
2021/05/05 11:32:24;;;;;;;4.78;0.80;;;25.20;74.20;;;;;;5015366;28;20034;-71
2021/05/05 11:34:51;;;;;;;4.55;0.60;;;29.40;65.70;;;;;;5014876;28;20044;-71
2021/05/05 11:37:24;;;;;;;0.65;0.57;;;27.70;59.90;;;;;;5015227;28;20037;-71
2021/05/05 11:39:54;;;;;;;3.85;0.82;;;26.00;73.00;;;;;;5015031;28;20034;-71
2021/05/05 11:42:28;;;;;;;2.10;0.75;;;26.50;71.90;;;;;;5013769;28;20026;-71
2021/05/05 11:45:00;;;;;;;0.63;0.60;;;26.80;70.30;;;;;;5014914;28;20030;-71
2021/05/05 11:47:33;;;;;;;0.55;0.50;;;24.70;79.50;;;;;;5015158;28;20026;-71
2021/05/05 11:50:13;;;;;;;1.65;0.60;;;23.70;85.60;;;;;;5014695;28;20030;-70
2021/05/05 11:52:44;;;;;;;3.10;0.90;;;22.00;95.50;;;;;;5014924;28;20037;-71
2021/05/05 11:55:10;;;;;;;0.93;0.60;;;21.20;99.40;;;;;;5014255;28;20034;-70
2021/05/05 11:57:45;;;;;;;0.75;0.75;;;20.60;99.90;;;;;;5014899;28;20032;-70
2021/05/05 12:00:25;;;;;;;1.27;0.90;;;20.10;99.90;;;;;;5014730;28;20030;-70
2021/05/05 12:03:00;;;;;;;0.50;0.50;;;19.10;99.90;;;;;;5014387;28;20038;-70
2021/05/05 12:05:34;;;;;;;2.25;1.00;;;19.20;99.90;;;;;;5014454;28;20084;-70
2021/05/05 12:08:10;;;;;;;0.75;0.70;;;19.30;99.90;;;;;;5014675;28;20018;-70
2021/05/05 12:10:36;;;;;;;0.52;0.52;;;19.30;99.90;;;;;;5014773;28;20034;-70
2021/05/05 12:13:09;;;;;;;0.85;0.60;;;19.10;99.90;;;;;;5014191;28;20036;-70
2021/05/05 12:15:39;;;;;;;0.70;0.60;;;19.80;99.90;;;;;;5014689;28;20028;-70
2021/05/05 12:18:20;;;;;;;0.82;0.80;;;19.70;99.90;;;;;;5012802;28;20398;-70
2021/05/05 12:20:48;;;;;;;0.95;0.70;;;19.80;99.90;;;;;;5014278;28;20048;-70
2021/05/05 12:23:14;;;;;;;0.88;0.60;;;20.80;99.90;;;;;;5014137;28;20087;-70
2021/05/05 12:25:40;;;;;;;1.02;0.60;;;20.10;99.90;;;;;;5012908;28;20120;-70
2021/05/05 12:28:10;;;;;;;1.15;0.70;;;18.90;99.90;;;;;;5014176;28;20108;-70
2021/05/05 12:30:45;;;;;;;0.95;0.80;;;18.70;99.90;;;;;;5013957;28;20034;-70
2021/05/05 12:33:13;;;;;;;2.00;1.08;;;18.50;99.90;;;;;;5013562;28;20029;-70
2021/05/05 12:35:39;;;;;;;1.80;0.82;;;18.80;99.90;;;;;;5014261;28;20030;-70
2021/05/05 12:38:11;;;;;;;1.17;0.80;;;18.60;99.90;;;;;;5014080;28;20022;-70
2021/05/05 12:40:37;;;;;;;9.05;1.60;;;18.20;99.90;;;;;;5012503;28;20037;-70
2021/05/05 12:43:21;;;;;;;1.73;0.90;;;18.00;99.90;;;;;;5013760;28;20026;-70
2021/05/05 12:45:49;;;;;;;2.13;1.05;;;17.70;99.90;;;;;;5013899;28;20037;-70
2021/05/05 12:48:23;;;;;;;1.88;0.70;;;17.80;99.90;;;;;;5013560;28;20101;-70
2021/05/05 12:50:49;;;;;;;2.25;1.05;;;18.90;99.90;;;;;;5013937;28;20022;-70
2021/05/05 12:53:16;;;;;;;0.85;0.82;;;19.40;99.90;;;;;;5013643;28;20117;-70
2021/05/05 12:55:42;;;;;;;1.55;0.90;;;19.30;99.90;;;;;;5013416;28;20037;-70
2021/05/05 12:58:16;;;;;;;0.70;0.70;;;19.40;99.90;;;;;;5013634;28;20036;-70
2021/05/05 13:00:45;;;;;;;1.33;0.90;;;19.40;99.90;;;;;;5013729;28;20034;-71
2021/05/05 13:03:18;;;;;;;1.23;0.80;;;18.90;99.90;;;;;;5012795;28;20046;-70